sensor_id;sensor_type;location;lat;lon;timestamp;P1;durP1;ratioP1;P2;durP2;ratioP2
7903;SDS011;3997;48.416;8.512;2022-08-19T00:02:22;18.15;;;16.55;;
7903;SDS011;3997;48.416;8.512;2022-08-19T00:04:50;19.13;;;16.92;;
7903;SDS011;3997;48.416;8.512;2022-08-19T00:07:17;19.60;;;17.77;;
7903;SDS011;3997;48.416;8.512;2022-08-19T00:09:44;17.00;;;15.50;;
7903;SDS011;3997;48.416;8.512;2022-08-19T00:12:11;17.25;;;15.75;;
7903;SDS011;3997;48.416;8.512;2022-08-19T00:14:38;18.00;;;16.13;;
7903;SDS011;3997;48.416;8.512;2022-08-19T00:17:06;17.40;;;15.75;;
7903;SDS011;3997;48.416;8.512;2022-08-19T00:19:33;16.58;;;14.98;;
7903;SDS011;3997;48.416;8.512;2022-08-19T00:22:01;17.77;;;16.08;;
7903;SDS011;3997;48.416;8.512;2022-08-19T00:24:28;17.10;;;15.65;;
7903;SDS011;3997;48.416;8.512;2022-08-19T00:26:55;16.60;;;15.20;;
7903;SDS011;3997;48.416;8.512;2022-08-19T00:29:23;17.33;;;15.68;;
7903;SDS011;3997;48.416;8.512;2022-08-19T00:31:50;15.70;;;14.40;;
7903;SDS011;3997;48.416;8.512;2022-08-19T00:34:20;16.30;;;14.90;;
7903;SDS011;3997;48.416;8.512;2022-08-19T00:36:48;15.27;;;14.07;;
7903;SDS011;3997;48.416;8.512;2022-08-19T00:39:16;16.50;;;14.98;;
7903;SDS011;3997;48.416;8.512;2022-08-19T00:41:43;15.70;;;14.35;;
7903;SDS011;3997;48.416;8.512;2022-08-19T00:44:11;16.10;;;14.70;;
7903;SDS011;3997;48.416;8.512;2022-08-19T00:46:38;15.77;;;14.43;;
7903;SDS011;3997;48.416;8.512;2022-08-19T00:49:06;16.92;;;15.38;;
7903;SDS011;3997;48.416;8.512;2022-08-19T00:51:34;17.65;;;16.17;;
7903;SDS011;3997;48.416;8.512;2022-08-19T00:54:02;16.25;;;14.75;;
7903;SDS011;3997;48.416;8.512;2022-08-19T00:56:30;17.23;;;15.82;;
7903;SDS011;3997;48.416;8.512;2022-08-19T00:58:56;17.17;;;15.73;;
7903;SDS011;3997;48.416;8.512;2022-08-19T01:01:24;17.23;;;15.90;;
7903;SDS011;3997;48.416;8.512;2022-08-19T01:03:50;17.20;;;15.70;;
7903;SDS011;3997;48.416;8.512;2022-08-19T01:06:17;17.30;;;15.80;;
7903;SDS011;3997;48.416;8.512;2022-08-19T01:08:44;17.23;;;15.82;;
7903;SDS011;3997;48.416;8.512;2022-08-19T01:11:10;17.20;;;15.70;;
7903;SDS011;3997;48.416;8.512;2022-08-19T01:13:39;16.85;;;15.35;;
7903;SDS011;3997;48.416;8.512;2022-08-19T01:16:07;17.30;;;15.80;;
7903;SDS011;3997;48.416;8.512;2022-08-19T01:18:35;16.10;;;14.80;;
7903;SDS011;3997;48.416;8.512;2022-08-19T01:21:04;16.77;;;15.43;;
7903;SDS011;3997;48.416;8.512;2022-08-19T01:23:33;17.00;;;15.63;;
7903;SDS011;3997;48.416;8.512;2022-08-19T01:26:09;17.58;;;16.02;;
7903;SDS011;3997;48.416;8.512;2022-08-19T01:28:36;17.85;;;15.60;;
7903;SDS011;3997;48.416;8.512;2022-08-19T01:31:02;18.80;;;17.10;;
7903;SDS011;3997;48.416;8.512;2022-08-19T01:33:29;17.95;;;16.25;;
7903;SDS011;3997;48.416;8.512;2022-08-19T01:36:02;18.70;;;16.67;;
7903;SDS011;3997;48.416;8.512;2022-08-19T01:38:29;18.25;;;16.50;;
7903;SDS011;3997;48.416;8.512;2022-08-19T01:40:58;18.77;;;17.08;;
7903;SDS011;3997;48.416;8.512;2022-08-19T01:43:24;16.88;;;15.18;;
7903;SDS011;3997;48.416;8.512;2022-08-19T01:45:51;16.05;;;14.73;;
7903;SDS011;3997;48.416;8.512;2022-08-19T01:48:18;17.38;;;15.88;;
7903;SDS011;3997;48.416;8.512;2022-08-19T01:50:44;17.63;;;15.85;;
7903;SDS011;3997;48.416;8.512;2022-08-19T01:53:12;17.58;;;15.93;;
7903;SDS011;3997;48.416;8.512;2022-08-19T01:55:39;16.70;;;15.30;;
7903;SDS011;3997;48.416;8.512;2022-08-19T01:58:08;17.65;;;16.05;;
7903;SDS011;3997;48.416;8.512;2022-08-19T02:00:37;17.98;;;16.17;;
7903;SDS011;3997;48.416;8.512;2022-08-19T02:03:04;19.33;;;17.58;;
7903;SDS011;3997;48.416;8.512;2022-08-19T02:05:31;18.30;;;16.50;;
7903;SDS011;3997;48.416;8.512;2022-08-19T02:07:58;20.30;;;18.17;;
7903;SDS011;3997;48.416;8.512;2022-08-19T02:10:24;20.02;;;18.27;;
7903;SDS011;3997;48.416;8.512;2022-08-19T02:12:51;21.35;;;19.17;;
7903;SDS011;3997;48.416;8.512;2022-08-19T02:15:19;20.60;;;18.70;;
7903;SDS011;3997;48.416;8.512;2022-08-19T02:17:47;20.83;;;18.92;;
7903;SDS011;3997;48.416;8.512;2022-08-19T02:20:13;21.25;;;19.05;;
7903;SDS011;3997;48.416;8.512;2022-08-19T02:22:40;22.30;;;20.10;;
7903;SDS011;3997;48.416;8.512;2022-08-19T02:25:08;21.38;;;19.30;;
7903;SDS011;3997;48.416;8.512;2022-08-19T02:27:35;22.45;;;20.02;;
7903;SDS011;3997;48.416;8.512;2022-08-19T02:30:02;21.30;;;19.38;;
7903;SDS011;3997;48.416;8.512;2022-08-19T02:32:30;22.75;;;20.65;;
7903;SDS011;3997;48.416;8.512;2022-08-19T02:34:57;21.80;;;19.70;;
7903;SDS011;3997;48.416;8.512;2022-08-19T02:37:23;22.02;;;19.77;;
7903;SDS011;3997;48.416;8.512;2022-08-19T02:40:07;21.73;;;19.73;;
7903;SDS011;3997;48.416;8.512;2022-08-19T02:42:34;22.33;;;20.13;;
7903;SDS011;3997;48.416;8.512;2022-08-19T02:45:01;22.48;;;20.25;;
7903;SDS011;3997;48.416;8.512;2022-08-19T02:47:27;20.67;;;18.67;;
7903;SDS011;3997;48.416;8.512;2022-08-19T02:49:55;22.73;;;20.63;;
7903;SDS011;3997;48.416;8.512;2022-08-19T02:52:21;22.60;;;20.50;;
7903;SDS011;3997;48.416;8.512;2022-08-19T02:54:48;22.95;;;20.75;;
7903;SDS011;3997;48.416;8.512;2022-08-19T02:57:15;21.55;;;19.27;;
7903;SDS011;3997;48.416;8.512;2022-08-19T02:59:41;21.77;;;19.65;;
7903;SDS011;3997;48.416;8.512;2022-08-19T03:02:08;22.50;;;20.30;;
7903;SDS011;3997;48.416;8.512;2022-08-19T03:04:34;23.33;;;21.23;;
7903;SDS011;3997;48.416;8.512;2022-08-19T03:07:02;22.77;;;20.63;;
7903;SDS011;3997;48.416;8.512;2022-08-19T03:09:28;22.60;;;20.55;;
7903;SDS011;3997;48.416;8.512;2022-08-19T03:11:55;23.85;;;21.42;;
7903;SDS011;3997;48.416;8.512;2022-08-19T03:14:22;21.42;;;19.42;;
7903;SDS011;3997;48.416;8.512;2022-08-19T03:16:49;21.00;;;19.10;;
7903;SDS011;3997;48.416;8.512;2022-08-19T03:19:16;21.75;;;19.77;;
7903;SDS011;3997;48.416;8.512;2022-08-19T03:21:43;22.33;;;20.23;;
7903;SDS011;3997;48.416;8.512;2022-08-19T03:24:12;21.75;;;19.65;;
7903;SDS011;3997;48.416;8.512;2022-08-19T03:26:39;22.65;;;20.35;;
7903;SDS011;3997;48.416;8.512;2022-08-19T03:29:06;22.80;;;20.42;;
7903;SDS011;3997;48.416;8.512;2022-08-19T03:31:36;22.83;;;20.67;;
7903;SDS011;3997;48.416;8.512;2022-08-19T03:34:03;23.00;;;20.75;;
7903;SDS011;3997;48.416;8.512;2022-08-19T03:36:29;23.02;;;20.67;;
7903;SDS011;3997;48.416;8.512;2022-08-19T03:38:57;21.73;;;19.52;;
7903;SDS011;3997;48.416;8.512;2022-08-19T03:41:26;23.52;;;21.08;;
7903;SDS011;3997;48.416;8.512;2022-08-19T03:43:53;22.60;;;20.40;;
7903;SDS011;3997;48.416;8.512;2022-08-19T03:46:22;22.65;;;20.35;;
7903;SDS011;3997;48.416;8.512;2022-08-19T03:48:50;23.33;;;21.00;;
7903;SDS011;3997;48.416;8.512;2022-08-19T03:51:19;22.60;;;20.45;;
7903;SDS011;3997;48.416;8.512;2022-08-19T03:53:46;24.33;;;21.92;;
7903;SDS011;3997;48.416;8.512;2022-08-19T03:56:13;22.75;;;19.85;;
7903;SDS011;3997;48.416;8.512;2022-08-19T03:58:41;21.40;;;19.35;;
7903;SDS011;3997;48.416;8.512;2022-08-19T04:01:08;21.58;;;19.35;;
7903;SDS011;3997;48.416;8.512;2022-08-19T04:03:35;22.98;;;20.85;;
7903;SDS011;3997;48.416;8.512;2022-08-19T04:06:08;24.92;;;22.42;;
7903;SDS011;3997;48.416;8.512;2022-08-19T04:08:36;24.67;;;22.23;;
7903;SDS011;3997;48.416;8.512;2022-08-19T04:11:06;24.15;;;21.77;;
7903;SDS011;3997;48.416;8.512;2022-08-19T04:13:32;23.23;;;20.85;;
7903;SDS011;3997;48.416;8.512;2022-08-19T04:16:00;23.58;;;21.23;;
7903;SDS011;3997;48.416;8.512;2022-08-19T04:18:27;24.52;;;22.13;;
7903;SDS011;3997;48.416;8.512;2022-08-19T04:20:55;24.55;;;22.13;;
7903;SDS011;3997;48.416;8.512;2022-08-19T04:23:22;24.15;;;21.30;;
7903;SDS011;3997;48.416;8.512;2022-08-19T04:25:48;21.23;;;19.30;;
7903;SDS011;3997;48.416;8.512;2022-08-19T04:28:15;22.85;;;20.58;;
7903;SDS011;3997;48.416;8.512;2022-08-19T04:30:42;22.80;;;20.70;;
7903;SDS011;3997;48.416;8.512;2022-08-19T04:33:11;23.27;;;20.98;;
7903;SDS011;3997;48.416;8.512;2022-08-19T04:35:38;22.10;;;19.80;;
7903;SDS011;3997;48.416;8.512;2022-08-19T04:38:05;24.02;;;21.83;;
7903;SDS011;3997;48.416;8.512;2022-08-19T04:40:32;23.83;;;21.33;;
7903;SDS011;3997;48.416;8.512;2022-08-19T04:43:31;24.55;;;22.15;;
7903;SDS011;3997;48.416;8.512;2022-08-19T04:45:58;24.23;;;21.83;;
7903;SDS011;3997;48.416;8.512;2022-08-19T04:48:26;24.80;;;22.20;;
7903;SDS011;3997;48.416;8.512;2022-08-19T04:50:53;25.80;;;23.25;;
7903;SDS011;3997;48.416;8.512;2022-08-19T04:53:23;26.98;;;24.27;;
7903;SDS011;3997;48.416;8.512;2022-08-19T04:55:49;27.70;;;24.70;;
7903;SDS011;3997;48.416;8.512;2022-08-19T04:58:16;27.23;;;24.42;;
7903;SDS011;3997;48.416;8.512;2022-08-19T05:00:42;27.60;;;24.80;;
7903;SDS011;3997;48.416;8.512;2022-08-19T05:03:09;27.88;;;25.05;;
7903;SDS011;3997;48.416;8.512;2022-08-19T05:05:39;27.55;;;24.73;;
7903;SDS011;3997;48.416;8.512;2022-08-19T05:08:06;25.98;;;23.38;;
7903;SDS011;3997;48.416;8.512;2022-08-19T05:10:34;28.85;;;25.95;;
7903;SDS011;3997;48.416;8.512;2022-08-19T05:13:01;26.33;;;23.77;;
7903;SDS011;3997;48.416;8.512;2022-08-19T05:15:27;26.33;;;23.67;;
7903;SDS011;3997;48.416;8.512;2022-08-19T05:17:54;26.38;;;23.65;;
7903;SDS011;3997;48.416;8.512;2022-08-19T05:20:39;25.02;;;22.38;;
7903;SDS011;3997;48.416;8.512;2022-08-19T05:23:23;25.15;;;22.75;;
7903;SDS011;3997;48.416;8.512;2022-08-19T05:25:49;24.67;;;22.33;;
7903;SDS011;3997;48.416;8.512;2022-08-19T05:28:16;26.20;;;23.45;;
7903;SDS011;3997;48.416;8.512;2022-08-19T05:30:43;25.45;;;22.98;;
7903;SDS011;3997;48.416;8.512;2022-08-19T05:33:10;24.60;;;22.20;;
7903;SDS011;3997;48.416;8.512;2022-08-19T05:35:38;23.90;;;21.60;;
7903;SDS011;3997;48.416;8.512;2022-08-19T05:38:05;24.92;;;22.40;;
7903;SDS011;3997;48.416;8.512;2022-08-19T05:40:33;25.20;;;22.63;;
7903;SDS011;3997;48.416;8.512;2022-08-19T05:43:01;23.73;;;21.33;;
7903;SDS011;3997;48.416;8.512;2022-08-19T05:45:27;24.52;;;22.05;;
7903;SDS011;3997;48.416;8.512;2022-08-19T05:47:54;24.02;;;21.73;;
7903;SDS011;3997;48.416;8.512;2022-08-19T05:50:20;23.95;;;21.70;;
7903;SDS011;3997;48.416;8.512;2022-08-19T05:52:48;22.48;;;20.25;;
7903;SDS011;3997;48.416;8.512;2022-08-19T05:55:15;24.75;;;22.38;;
7903;SDS011;3997;48.416;8.512;2022-08-19T05:57:41;24.63;;;22.33;;
7903;SDS011;3997;48.416;8.512;2022-08-19T06:00:08;24.90;;;22.35;;
7903;SDS011;3997;48.416;8.512;2022-08-19T06:02:36;24.90;;;22.60;;
7903;SDS011;3997;48.416;8.512;2022-08-19T06:05:03;25.45;;;23.05;;
7903;SDS011;3997;48.416;8.512;2022-08-19T06:07:31;24.90;;;22.70;;
7903;SDS011;3997;48.416;8.512;2022-08-19T06:09:59;25.02;;;22.73;;
7903;SDS011;3997;48.416;8.512;2022-08-19T06:12:26;24.52;;;22.13;;
7903;SDS011;3997;48.416;8.512;2022-08-19T06:14:55;24.73;;;22.33;;
7903;SDS011;3997;48.416;8.512;2022-08-19T06:17:22;23.23;;;21.13;;
7903;SDS011;3997;48.416;8.512;2022-08-19T06:19:50;24.48;;;22.35;;
7903;SDS011;3997;48.416;8.512;2022-08-19T06:22:16;24.05;;;21.92;;
7903;SDS011;3997;48.416;8.512;2022-08-19T06:24:43;23.92;;;21.67;;
7903;SDS011;3997;48.416;8.512;2022-08-19T06:27:11;26.63;;;24.02;;
7903;SDS011;3997;48.416;8.512;2022-08-19T06:29:37;25.85;;;23.45;;
7903;SDS011;3997;48.416;8.512;2022-08-19T06:32:04;25.33;;;22.92;;
7903;SDS011;3997;48.416;8.512;2022-08-19T06:34:31;26.85;;;24.30;;
7903;SDS011;3997;48.416;8.512;2022-08-19T06:36:59;27.60;;;24.90;;
7903;SDS011;3997;48.416;8.512;2022-08-19T06:39:32;27.02;;;24.25;;
7903;SDS011;3997;48.416;8.512;2022-08-19T06:41:59;26.42;;;23.90;;
7903;SDS011;3997;48.416;8.512;2022-08-19T06:44:28;26.73;;;23.90;;
7903;SDS011;3997;48.416;8.512;2022-08-19T06:47:01;26.63;;;23.80;;
7903;SDS011;3997;48.416;8.512;2022-08-19T06:49:27;27.48;;;24.33;;
7903;SDS011;3997;48.416;8.512;2022-08-19T06:51:56;29.73;;;26.77;;
7903;SDS011;3997;48.416;8.512;2022-08-19T06:54:23;30.88;;;27.55;;
7903;SDS011;3997;48.416;8.512;2022-08-19T06:56:50;29.60;;;26.58;;
7903;SDS011;3997;48.416;8.512;2022-08-19T06:59:18;32.55;;;26.83;;
7903;SDS011;3997;48.416;8.512;2022-08-19T07:01:47;29.23;;;26.15;;
7903;SDS011;3997;48.416;8.512;2022-08-19T07:04:15;29.90;;;26.70;;
7903;SDS011;3997;48.416;8.512;2022-08-19T07:06:42;31.98;;;28.48;;
7903;SDS011;3997;48.416;8.512;2022-08-19T07:09:09;27.15;;;24.48;;
7903;SDS011;3997;48.416;8.512;2022-08-19T07:11:36;28.08;;;25.17;;
7903;SDS011;3997;48.416;8.512;2022-08-19T07:14:03;30.58;;;27.55;;
7903;SDS011;3997;48.416;8.512;2022-08-19T07:16:31;27.42;;;24.63;;
7903;SDS011;3997;48.416;8.512;2022-08-19T07:18:58;26.95;;;24.25;;
7903;SDS011;3997;48.416;8.512;2022-08-19T07:21:26;27.02;;;24.33;;
7903;SDS011;3997;48.416;8.512;2022-08-19T07:23:54;28.58;;;25.50;;
7903;SDS011;3997;48.416;8.512;2022-08-19T07:26:21;27.77;;;24.98;;
7903;SDS011;3997;48.416;8.512;2022-08-19T07:28:48;28.77;;;25.95;;
7903;SDS011;3997;48.416;8.512;2022-08-19T07:31:16;30.00;;;26.95;;
7903;SDS011;3997;48.416;8.512;2022-08-19T07:33:43;29.25;;;26.25;;
7903;SDS011;3997;48.416;8.512;2022-08-19T07:36:12;28.23;;;25.30;;
7903;SDS011;3997;48.416;8.512;2022-08-19T07:38:39;29.38;;;26.10;;
7903;SDS011;3997;48.416;8.512;2022-08-19T07:41:05;28.85;;;25.75;;
7903;SDS011;3997;48.416;8.512;2022-08-19T07:43:32;31.23;;;27.83;;
7903;SDS011;3997;48.416;8.512;2022-08-19T07:45:58;29.73;;;26.70;;
7903;SDS011;3997;48.416;8.512;2022-08-19T07:48:25;30.13;;;26.85;;
7903;SDS011;3997;48.416;8.512;2022-08-19T07:50:52;29.92;;;26.73;;
7903;SDS011;3997;48.416;8.512;2022-08-19T07:53:20;30.10;;;26.98;;
7903;SDS011;3997;48.416;8.512;2022-08-19T07:55:47;29.35;;;26.25;;
7903;SDS011;3997;48.416;8.512;2022-08-19T07:58:14;28.88;;;25.75;;
7903;SDS011;3997;48.416;8.512;2022-08-19T08:00:42;26.52;;;23.13;;
7903;SDS011;3997;48.416;8.512;2022-08-19T08:03:09;28.30;;;25.20;;
7903;SDS011;3997;48.416;8.512;2022-08-19T08:05:35;30.08;;;24.63;;
7903;SDS011;3997;48.416;8.512;2022-08-19T08:08:21;27.45;;;24.58;;
7903;SDS011;3997;48.416;8.512;2022-08-19T08:11:01;27.67;;;24.00;;
7903;SDS011;3997;48.416;8.512;2022-08-19T08:13:28;27.17;;;24.08;;
7903;SDS011;3997;48.416;8.512;2022-08-19T08:15:54;26.17;;;23.38;;
7903;SDS011;3997;48.416;8.512;2022-08-19T08:18:21;27.20;;;24.27;;
7903;SDS011;3997;48.416;8.512;2022-08-19T08:20:47;25.23;;;22.50;;
7903;SDS011;3997;48.416;8.512;2022-08-19T08:23:14;23.25;;;20.75;;
7903;SDS011;3997;48.416;8.512;2022-08-19T08:25:52;24.48;;;21.98;;
7903;SDS011;3997;48.416;8.512;2022-08-19T08:28:19;25.42;;;22.67;;
7903;SDS011;3997;48.416;8.512;2022-08-19T08:30:46;24.13;;;21.02;;
7903;SDS011;3997;48.416;8.512;2022-08-19T08:33:13;23.30;;;21.08;;
7903;SDS011;3997;48.416;8.512;2022-08-19T08:35:40;24.05;;;21.55;;
7903;SDS011;3997;48.416;8.512;2022-08-19T08:38:07;23.67;;;21.38;;
7903;SDS011;3997;48.416;8.512;2022-08-19T08:40:38;23.90;;;21.50;;
7903;SDS011;3997;48.416;8.512;2022-08-19T08:43:08;23.95;;;21.58;;
7903;SDS011;3997;48.416;8.512;2022-08-19T08:45:38;23.75;;;21.35;;
7903;SDS011;3997;48.416;8.512;2022-08-19T08:48:10;22.00;;;19.92;;
7903;SDS011;3997;48.416;8.512;2022-08-19T08:50:39;24.02;;;21.55;;
7903;SDS011;3997;48.416;8.512;2022-08-19T08:53:08;23.83;;;21.52;;
7903;SDS011;3997;48.416;8.512;2022-08-19T08:55:36;19.95;;;17.85;;
7903;SDS011;3997;48.416;8.512;2022-08-19T08:58:04;22.75;;;20.27;;
7903;SDS011;3997;48.416;8.512;2022-08-19T09:00:34;23.00;;;20.75;;
7903;SDS011;3997;48.416;8.512;2022-08-19T09:03:03;23.90;;;21.50;;
7903;SDS011;3997;48.416;8.512;2022-08-19T09:05:34;23.75;;;21.55;;
7903;SDS011;3997;48.416;8.512;2022-08-19T09:08:05;22.45;;;20.35;;
7903;SDS011;3997;48.416;8.512;2022-08-19T09:10:38;21.88;;;19.88;;
7903;SDS011;3997;48.416;8.512;2022-08-19T09:13:07;21.75;;;19.85;;
7903;SDS011;3997;48.416;8.512;2022-08-19T09:15:39;21.67;;;19.65;;
7903;SDS011;3997;48.416;8.512;2022-08-19T09:18:06;22.63;;;20.48;;
7903;SDS011;3997;48.416;8.512;2022-08-19T09:20:34;21.63;;;19.73;;
7903;SDS011;3997;48.416;8.512;2022-08-19T09:23:00;20.40;;;18.45;;
7903;SDS011;3997;48.416;8.512;2022-08-19T09:25:27;22.52;;;20.33;;
7903;SDS011;3997;48.416;8.512;2022-08-19T09:27:54;20.77;;;18.88;;
7903;SDS011;3997;48.416;8.512;2022-08-19T09:30:23;19.83;;;17.92;;
7903;SDS011;3997;48.416;8.512;2022-08-19T09:32:51;20.40;;;18.48;;
7903;SDS011;3997;48.416;8.512;2022-08-19T09:35:19;20.17;;;18.38;;
7903;SDS011;3997;48.416;8.512;2022-08-19T09:37:47;20.30;;;18.27;;
7903;SDS011;3997;48.416;8.512;2022-08-19T09:40:14;18.42;;;16.77;;
7903;SDS011;3997;48.416;8.512;2022-08-19T09:42:41;19.35;;;17.65;;
7903;SDS011;3997;48.416;8.512;2022-08-19T09:45:08;18.70;;;16.90;;
7903;SDS011;3997;48.416;8.512;2022-08-19T09:47:35;18.35;;;16.70;;
7903;SDS011;3997;48.416;8.512;2022-08-19T09:50:05;16.05;;;14.65;;
7903;SDS011;3997;48.416;8.512;2022-08-19T09:52:32;16.98;;;15.43;;
7903;SDS011;3997;48.416;8.512;2022-08-19T09:55:01;16.73;;;15.02;;
7903;SDS011;3997;48.416;8.512;2022-08-19T09:57:28;17.42;;;15.73;;
7903;SDS011;3997;48.416;8.512;2022-08-19T09:59:54;17.48;;;15.85;;
7903;SDS011;3997;48.416;8.512;2022-08-19T10:02:21;16.85;;;15.35;;
7903;SDS011;3997;48.416;8.512;2022-08-19T10:04:47;17.17;;;15.68;;
7903;SDS011;3997;48.416;8.512;2022-08-19T10:07:32;15.88;;;14.48;;
7903;SDS011;3997;48.416;8.512;2022-08-19T10:09:59;15.85;;;14.27;;
7903;SDS011;3997;48.416;8.512;2022-08-19T10:12:26;15.77;;;14.35;;
7903;SDS011;3997;48.416;8.512;2022-08-19T10:14:52;15.48;;;14.07;;
7903;SDS011;3997;48.416;8.512;2022-08-19T10:17:19;14.63;;;13.43;;
7903;SDS011;3997;48.416;8.512;2022-08-19T10:19:46;15.15;;;13.68;;
7903;SDS011;3997;48.416;8.512;2022-08-19T10:22:12;14.68;;;13.38;;
7903;SDS011;3997;48.416;8.512;2022-08-19T10:24:41;13.15;;;12.05;;
7903;SDS011;3997;48.416;8.512;2022-08-19T10:27:07;11.88;;;10.85;;
7903;SDS011;3997;48.416;8.512;2022-08-19T10:29:34;12.18;;;11.18;;
7903;SDS011;3997;48.416;8.512;2022-08-19T10:32:01;12.50;;;11.20;;
7903;SDS011;3997;48.416;8.512;2022-08-19T10:34:28;10.93;;;10.00;;
7903;SDS011;3997;48.416;8.512;2022-08-19T10:36:55;10.73;;;9.82;;
7903;SDS011;3997;48.416;8.512;2022-08-19T10:39:22;11.45;;;10.50;;
7903;SDS011;3997;48.416;8.512;2022-08-19T10:41:50;11.15;;;10.18;;
7903;SDS011;3997;48.416;8.512;2022-08-19T10:44:16;10.90;;;9.98;;
7903;SDS011;3997;48.416;8.512;2022-08-19T10:46:43;11.02;;;10.07;;
7903;SDS011;3997;48.416;8.512;2022-08-19T10:49:12;11.98;;;10.57;;
7903;SDS011;3997;48.416;8.512;2022-08-19T10:51:39;10.95;;;9.95;;
7903;SDS011;3997;48.416;8.512;2022-08-19T10:54:23;10.57;;;9.68;;
7903;SDS011;3997;48.416;8.512;2022-08-19T10:57:11;10.23;;;9.40;;
7903;SDS011;3997;48.416;8.512;2022-08-19T10:59:37;10.05;;;9.25;;
7903;SDS011;3997;48.416;8.512;2022-08-19T11:02:04;9.05;;;8.35;;
7903;SDS011;3997;48.416;8.512;2022-08-19T11:04:31;9.57;;;8.80;;
7903;SDS011;3997;48.416;8.512;2022-08-19T11:06:58;10.30;;;9.40;;
7903;SDS011;3997;48.416;8.512;2022-08-19T11:09:25;9.48;;;8.77;;
7903;SDS011;3997;48.416;8.512;2022-08-19T11:11:52;8.90;;;8.10;;
7903;SDS011;3997;48.416;8.512;2022-08-19T11:14:20;9.40;;;8.65;;
7903;SDS011;3997;48.416;8.512;2022-08-19T11:16:47;9.77;;;9.02;;
7903;SDS011;3997;48.416;8.512;2022-08-19T11:19:15;9.32;;;8.63;;
7903;SDS011;3997;48.416;8.512;2022-08-19T11:21:44;9.63;;;8.82;;
7903;SDS011;3997;48.416;8.512;2022-08-19T11:24:11;10.90;;;10.00;;
7903;SDS011;3997;48.416;8.512;2022-08-19T11:26:39;10.15;;;9.30;;
7903;SDS011;3997;48.416;8.512;2022-08-19T11:29:06;10.15;;;9.25;;
7903;SDS011;3997;48.416;8.512;2022-08-19T11:31:39;9.90;;;9.20;;
7903;SDS011;3997;48.416;8.512;2022-08-19T11:34:07;11.73;;;10.82;;
7903;SDS011;3997;48.416;8.512;2022-08-19T11:36:34;11.43;;;10.32;;
7903;SDS011;3997;48.416;8.512;2022-08-19T11:39:01;12.73;;;11.57;;
7903;SDS011;3997;48.416;8.512;2022-08-19T11:41:27;10.88;;;9.57;;
7903;SDS011;3997;48.416;8.512;2022-08-19T11:43:54;11.13;;;10.25;;
7903;SDS011;3997;48.416;8.512;2022-08-19T11:46:21;9.35;;;8.57;;
7903;SDS011;3997;48.416;8.512;2022-08-19T11:48:50;11.27;;;10.27;;
7903;SDS011;3997;48.416;8.512;2022-08-19T11:51:19;11.25;;;10.35;;
7903;SDS011;3997;48.416;8.512;2022-08-19T11:53:46;11.15;;;10.25;;
7903;SDS011;3997;48.416;8.512;2022-08-19T11:56:13;12.82;;;11.73;;
7903;SDS011;3997;48.416;8.512;2022-08-19T11:58:39;12.80;;;11.73;;
7903;SDS011;3997;48.416;8.512;2022-08-19T12:01:07;12.13;;;11.13;;
7903;SDS011;3997;48.416;8.512;2022-08-19T12:03:33;11.13;;;10.23;;
7903;SDS011;3997;48.416;8.512;2022-08-19T12:06:04;10.82;;;9.82;;
7903;SDS011;3997;48.416;8.512;2022-08-19T12:08:30;10.82;;;10.02;;
7903;SDS011;3997;48.416;8.512;2022-08-19T12:10:57;13.80;;;12.60;;
7903;SDS011;3997;48.416;8.512;2022-08-19T12:13:26;11.52;;;10.70;;
7903;SDS011;3997;48.416;8.512;2022-08-19T12:15:52;11.90;;;11.05;;
7903;SDS011;3997;48.416;8.512;2022-08-19T12:18:19;11.27;;;10.38;;
7903;SDS011;3997;48.416;8.512;2022-08-19T12:20:46;10.65;;;9.65;;
7903;SDS011;3997;48.416;8.512;2022-08-19T12:23:14;10.35;;;9.55;;
7903;SDS011;3997;48.416;8.512;2022-08-19T12:25:43;11.32;;;10.52;;
7903;SDS011;3997;48.416;8.512;2022-08-19T12:28:15;11.10;;;10.20;;
7903;SDS011;3997;48.416;8.512;2022-08-19T12:30:50;11.38;;;10.48;;
7903;SDS011;3997;48.416;8.512;2022-08-19T12:33:17;11.60;;;10.80;;
7903;SDS011;3997;48.416;8.512;2022-08-19T12:35:44;12.07;;;11.07;;
7903;SDS011;3997;48.416;8.512;2022-08-19T12:38:11;12.90;;;11.90;;
7903;SDS011;3997;48.416;8.512;2022-08-19T12:40:38;11.55;;;10.75;;
7903;SDS011;3997;48.416;8.512;2022-08-19T12:43:05;12.20;;;11.27;;
7903;SDS011;3997;48.416;8.512;2022-08-19T12:45:31;11.25;;;10.35;;
7903;SDS011;3997;48.416;8.512;2022-08-19T12:47:59;11.60;;;10.60;;
7903;SDS011;3997;48.416;8.512;2022-08-19T12:50:26;10.77;;;9.98;;
7903;SDS011;3997;48.416;8.512;2022-08-19T12:52:52;11.77;;;10.85;;
7903;SDS011;3997;48.416;8.512;2022-08-19T12:55:19;10.52;;;9.73;;
7903;SDS011;3997;48.416;8.512;2022-08-19T12:57:45;11.02;;;10.02;;
7903;SDS011;3997;48.416;8.512;2022-08-19T13:00:14;10.68;;;9.75;;
7903;SDS011;3997;48.416;8.512;2022-08-19T13:02:42;11.27;;;10.27;;
7903;SDS011;3997;48.416;8.512;2022-08-19T13:05:12;9.63;;;8.93;;
7903;SDS011;3997;48.416;8.512;2022-08-19T13:07:39;10.40;;;9.60;;
7903;SDS011;3997;48.416;8.512;2022-08-19T13:10:07;10.80;;;9.85;;
7903;SDS011;3997;48.416;8.512;2022-08-19T13:12:34;10.27;;;9.48;;
7903;SDS011;3997;48.416;8.512;2022-08-19T13:15:00;10.05;;;9.32;;
7903;SDS011;3997;48.416;8.512;2022-08-19T13:17:27;9.00;;;8.30;;
7903;SDS011;3997;48.416;8.512;2022-08-19T13:19:53;11.00;;;10.10;;
7903;SDS011;3997;48.416;8.512;2022-08-19T13:22:21;10.90;;;10.18;;
7903;SDS011;3997;48.416;8.512;2022-08-19T13:24:48;11.52;;;10.65;;
7903;SDS011;3997;48.416;8.512;2022-08-19T13:27:15;11.13;;;10.25;;
7903;SDS011;3997;48.416;8.512;2022-08-19T13:29:41;11.50;;;10.70;;
7903;SDS011;3997;48.416;8.512;2022-08-19T13:32:25;12.15;;;11.25;;
7903;SDS011;3997;48.416;8.512;2022-08-19T13:35:09;11.15;;;10.38;;
7903;SDS011;3997;48.416;8.512;2022-08-19T13:37:37;11.82;;;10.93;;
7903;SDS011;3997;48.416;8.512;2022-08-19T13:40:11;12.15;;;11.05;;
7903;SDS011;3997;48.416;8.512;2022-08-19T13:42:40;11.77;;;10.88;;
7903;SDS011;3997;48.416;8.512;2022-08-19T13:45:07;9.20;;;8.50;;
7903;SDS011;3997;48.416;8.512;2022-08-19T13:47:34;9.05;;;8.32;;
7903;SDS011;3997;48.416;8.512;2022-08-19T13:50:02;9.30;;;8.70;;
7903;SDS011;3997;48.416;8.512;2022-08-19T13:52:28;9.45;;;8.80;;
7903;SDS011;3997;48.416;8.512;2022-08-19T13:54:56;9.63;;;8.93;;
7903;SDS011;3997;48.416;8.512;2022-08-19T13:57:23;8.35;;;7.85;;
7903;SDS011;3997;48.416;8.512;2022-08-19T13:59:49;8.65;;;8.05;;
7903;SDS011;3997;48.416;8.512;2022-08-19T14:02:16;8.98;;;8.25;;
7903;SDS011;3997;48.416;8.512;2022-08-19T14:04:42;8.05;;;7.55;;
7903;SDS011;3997;48.416;8.512;2022-08-19T14:07:09;9.85;;;9.25;;
7903;SDS011;3997;48.416;8.512;2022-08-19T14:09:35;9.20;;;8.50;;
7903;SDS011;3997;48.416;8.512;2022-08-19T14:12:03;8.73;;;8.02;;
7903;SDS011;3997;48.416;8.512;2022-08-19T14:14:30;10.25;;;9.38;;
7903;SDS011;3997;48.416;8.512;2022-08-19T14:16:57;10.73;;;10.02;;
7903;SDS011;3997;48.416;8.512;2022-08-19T14:19:24;10.85;;;10.00;;
7903;SDS011;3997;48.416;8.512;2022-08-19T14:21:50;10.18;;;9.50;;
7903;SDS011;3997;48.416;8.512;2022-08-19T14:24:17;10.07;;;9.13;;
7903;SDS011;3997;48.416;8.512;2022-08-19T14:26:43;10.80;;;10.10;;
7903;SDS011;3997;48.416;8.512;2022-08-19T14:29:11;9.18;;;8.57;;
7903;SDS011;3997;48.416;8.512;2022-08-19T14:31:37;9.57;;;8.77;;
7903;SDS011;3997;48.416;8.512;2022-08-19T14:34:08;9.68;;;9.07;;
7903;SDS011;3997;48.416;8.512;2022-08-19T14:36:35;11.35;;;10.35;;
7903;SDS011;3997;48.416;8.512;2022-08-19T14:39:01;11.80;;;10.80;;
7903;SDS011;3997;48.416;8.512;2022-08-19T14:41:28;9.57;;;8.70;;
7903;SDS011;3997;48.416;8.512;2022-08-19T14:43:55;8.77;;;8.07;;
7903;SDS011;3997;48.416;8.512;2022-08-19T14:46:24;9.98;;;9.18;;
7903;SDS011;3997;48.416;8.512;2022-08-19T14:48:51;10.30;;;9.55;;
7903;SDS011;3997;48.416;8.512;2022-08-19T14:51:19;10.10;;;9.25;;
7903;SDS011;3997;48.416;8.512;2022-08-19T14:53:46;10.70;;;9.80;;
7903;SDS011;3997;48.416;8.512;2022-08-19T14:56:14;9.45;;;8.75;;